Time;durP1;ratioP1;P1;durP2;ratioP2;P2;SDS_P1;SDS_P2;PMS_P1;PMS_P2;Temp;Humidity;BMP_temperature;BMP_pressure;BME280_temperature;BME280_humidity;BME280_pressure;Samples;Min_cycle;Max_cycle;Signal;HPM_P1;HPM_P2
2023/01/19 00:02:21;;;;;;;1.80;1.50;;;16.30;61.90;;;;;;4194607;28;20113;-58
2023/01/19 00:05:03;;;;;;;1.60;1.20;;;16.40;61.80;;;;;;4193695;28;20044;-58
2023/01/19 00:07:45;;;;;;;1.98;1.73;;;16.50;61.50;;;;;;4194964;28;20063;-59
2023/01/19 00:10:26;;;;;;;4.43;1.33;;;16.50;61.40;;;;;;4194519;28;20048;-60
2023/01/19 00:13:07;;;;;;;1.53;1.30;;;16.50;61.30;;;;;;4194626;28;20051;-60
2023/01/19 00:15:48;;;;;;;2.13;1.20;;;16.50;61.40;;;;;;4194554;28;20339;-60
2023/01/19 00:18:29;;;;;;;3.15;1.20;;;16.50;61.10;;;;;;4194625;28;20043;-59
2023/01/19 00:21:10;;;;;;;1.92;1.30;;;16.60;61.00;;;;;;4194377;28;20396;-62
2023/01/19 00:23:53;;;;;;;1.10;1.10;;;16.60;61.20;;;;;;4194203;28;20051;-58
2023/01/19 00:26:34;;;;;;;1.48;1.38;;;16.60;61.00;;;;;;4194274;28;20055;-58
2023/01/19 00:29:15;;;;;;;1.20;1.10;;;16.60;60.90;;;;;;4194508;28;20057;-58
2023/01/19 00:31:56;;;;;;;1.30;1.20;;;16.60;61.00;;;;;;4193967;28;20065;-59
2023/01/19 00:34:38;;;;;;;1.13;1.10;;;16.60;61.00;;;;;;4194315;28;20121;-58
2023/01/19 00:37:19;;;;;;;1.63;1.00;;;16.60;61.00;;;;;;4193226;28;20151;-58
2023/01/19 00:40:01;;;;;;;2.38;1.30;;;16.50;61.10;;;;;;4194196;28;20055;-58
2023/01/19 00:42:43;;;;;;;2.40;1.20;;;16.50;61.40;;;;;;4193808;28;20055;-58
2023/01/19 00:45:24;;;;;;;1.88;1.35;;;16.40;61.30;;;;;;4194108;28;20513;-60
2023/01/19 00:48:06;;;;;;;1.73;1.15;;;16.30;61.60;;;;;;4194047;28;20105;-58
2023/01/19 00:50:48;;;;;;;3.58;1.52;;;16.20;62.00;;;;;;4193946;28;20051;-58
2023/01/19 00:53:31;;;;;;;1.50;1.20;;;16.10;62.40;;;;;;4193931;28;20071;-58
2023/01/19 00:56:13;;;;;;;1.63;1.45;;;16.00;62.80;;;;;;4193722;28;20059;-59
2023/01/19 00:58:54;;;;;;;2.17;1.23;;;16.10;62.80;;;;;;4193611;28;20055;-58
2023/01/19 01:01:35;;;;;;;1.30;1.20;;;16.10;62.60;;;;;;4193865;28;20059;-58
2023/01/19 01:04:26;;;;;;;0.75;0.75;;;16.10;62.50;;;;;;4194020;28;20426;-58
2023/01/19 01:07:07;;;;;;;0.88;0.80;;;16.20;62.50;;;;;;4193153;28;20051;-58
2023/01/19 01:09:48;;;;;;;1.63;0.90;;;16.30;62.30;;;;;;4193566;28;20056;-58
2023/01/19 01:12:30;;;;;;;1.85;0.80;;;16.40;62.00;;;;;;4193480;28;20125;-58
2023/01/19 01:15:12;;;;;;;1.55;0.77;;;16.40;61.80;;;;;;4193595;28;20408;-58
2023/01/19 01:17:54;;;;;;;1.45;0.60;;;16.50;61.60;;;;;;4193660;28;20411;-58
2023/01/19 01:20:35;;;;;;;1.40;0.70;;;16.50;61.50;;;;;;4193522;28;20051;-58
2023/01/19 01:33:02;;;;;;;;;;;16.70;60.90;;;;;;4011929;29;20048;-60
2023/01/19 01:35:43;;;;;;;1.55;0.50;;;16.70;60.90;;;;;;4017674;29;20069;-60
2023/01/19 01:38:24;;;;;;;1.33;0.65;;;16.70;61.00;;;;;;4017597;29;20058;-60
2023/01/19 01:41:05;;;;;;;1.20;1.00;;;16.70;61.10;;;;;;4017740;29;20061;-60
2023/01/19 01:43:48;;;;;;;0.57;0.57;;;16.60;61.00;;;;;;4017574;29;20185;-59
2023/01/19 01:46:30;;;;;;;2.05;0.88;;;16.50;61.10;;;;;;4016425;29;20057;-60
2023/01/19 01:49:16;;;;;;;1.52;0.70;;;16.50;61.40;;;;;;4017187;29;20177;-60
2023/01/19 01:51:57;;;;;;;0.70;0.70;;;16.40;62.50;;;;;;4017317;29;20068;-60
2023/01/19 01:54:38;;;;;;;0.43;0.40;;;16.30;61.90;;;;;;4017191;29;20101;-60
2023/01/19 01:57:19;;;;;;;0.52;0.52;;;16.20;62.30;;;;;;4017694;29;20056;-60
2023/01/19 02:00:00;;;;;;;0.82;0.60;;;16.10;62.70;;;;;;4017364;29;20051;-60
2023/01/19 02:02:49;;;;;;;2.80;0.77;;;16.20;62.80;;;;;;4016915;29;20068;-60
2023/01/19 02:05:34;;;;;;;1.75;0.68;;;16.20;63.50;;;;;;4017062;29;20056;-60
2023/01/19 02:14:17;;;;;;;1.10;1.00;;;16.50;61.90;;;;;;4016138;29;20152;-60
2023/01/19 02:16:58;;;;;;;1.80;1.30;;;16.50;61.70;;;;;;4017123;29;20049;-60
2023/01/19 02:19:42;;;;;;;1.95;0.90;;;16.50;61.70;;;;;;4017124;29;20057;-60
2023/01/19 02:22:34;;;;;;;3.05;1.20;;;16.60;61.50;;;;;;4017171;29;20430;-60
2023/01/19 02:25:18;;;;;;;1.02;0.93;;;16.60;61.40;;;;;;4016826;29;20532;-61
2023/01/19 02:28:00;;;;;;;1.63;1.25;;;16.60;61.30;;;;;;4016907;29;20061;-60
2023/01/19 02:30:42;;;;;;;3.28;1.30;;;16.60;61.30;;;;;;4016995;29;20068;-60
2023/01/19 02:33:22;;;;;;;1.20;1.10;;;16.60;61.40;;;;;;4017200;29;20073;-60
2023/01/19 02:36:07;;;;;;;2.65;1.08;;;16.60;62.40;;;;;;4016726;29;20057;-60
2023/01/19 02:38:50;;;;;;;1.02;1.02;;;16.50;61.40;;;;;;4016717;29;20080;-60
2023/01/19 02:41:39;;;;;;;1.30;0.85;;;16.50;61.90;;;;;;4016958;29;20052;-60
2023/01/19 02:44:22;;;;;;;1.25;0.90;;;16.50;61.90;;;;;;4016872;29;20052;-60
2023/01/19 02:47:03;;;;;;;1.40;1.13;;;16.60;61.90;;;;;;4016811;29;20442;-60
2023/01/19 02:49:45;;;;;;;3.90;1.20;;;16.60;61.50;;;;;;4016714;29;20504;-61
2023/01/19 02:52:26;;;;;;;0.93;0.93;;;16.60;61.50;;;;;;4016839;29;20065;-60
2023/01/19 02:55:14;;;;;;;0.95;0.95;;;16.60;61.50;;;;;;4016808;29;20398;-60
2023/01/19 02:58:08;;;;;;;2.28;1.25;;;16.60;62.40;;;;;;4016292;29;20053;-59
2023/01/19 03:01:01;;;;;;;1.23;1.17;;;16.60;61.50;;;;;;4016227;29;20522;-59
2023/01/19 03:03:53;;;;;;;1.20;1.10;;;16.60;61.50;;;;;;4026533;29;20073;-58
2023/01/19 03:06:41;;;;;;;0.90;0.90;;;16.60;61.50;;;;;;4016499;29;20416;-59
2023/01/19 03:09:31;;;;;;;3.35;1.13;;;16.60;61.50;;;;;;4016803;29;20144;-58
2023/01/19 03:12:22;;;;;;;1.05;1.00;;;16.50;61.40;;;;;;4016331;29;20064;-58
2023/01/19 03:15:14;;;;;;;1.00;1.00;;;16.50;61.70;;;;;;4016574;29;20989;-59
2023/01/19 03:17:57;;;;;;;0.90;0.90;;;16.40;62.10;;;;;;4016114;29;20129;-57
2023/01/19 03:20:40;;;;;;;1.10;1.00;;;16.40;62.50;;;;;;4016450;29;20060;-58
2023/01/19 03:23:23;;;;;;;1.10;1.10;;;16.40;62.30;;;;;;4016581;29;20068;-58
2023/01/19 03:26:09;;;;;;;1.40;1.30;;;16.40;62.20;;;;;;4017609;29;20125;-59
2023/01/19 03:28:52;;;;;;;1.13;1.13;;;16.40;62.10;;;;;;4019392;29;20625;-58
2023/01/19 03:31:36;;;;;;;1.42;1.33;;;16.40;62.30;;;;;;4019268;29;20568;-59
2023/01/19 03:34:20;;;;;;;1.65;1.55;;;16.50;62.20;;;;;;4019375;29;20072;-59
2023/01/19 03:37:04;;;;;;;2.10;1.60;;;16.50;62.10;;;;;;4019410;29;20521;-58
2023/01/19 03:39:44;;;;;;;1.10;1.10;;;16.50;62.00;;;;;;4019377;29;20206;-59
2023/01/19 03:42:28;;;;;;;1.50;1.40;;;16.50;62.10;;;;;;4019418;29;20385;-59
2023/01/19 03:45:13;;;;;;;1.52;1.42;;;16.60;62.10;;;;;;4019426;29;20052;-59
2023/01/19 03:47:55;;;;;;;1.92;1.30;;;16.60;61.90;;;;;;4019258;29;20060;-59
2023/01/19 03:50:36;;;;;;;1.50;1.40;;;16.60;61.90;;;;;;4019047;29;20065;-58
2023/01/19 03:53:17;;;;;;;2.17;1.40;;;16.60;61.90;;;;;;4019230;29;20125;-59
2023/01/19 03:55:58;;;;;;;1.90;1.80;;;16.60;61.90;;;;;;4018315;29;20125;-58
2023/01/19 03:58:41;;;;;;;1.70;1.60;;;16.60;62.10;;;;;;4019044;29;20132;-58
2023/01/19 04:01:22;;;;;;;1.90;1.80;;;16.50;62.20;;;;;;4018657;29;20048;-58
2023/01/19 04:04:04;;;;;;;2.63;1.92;;;16.50;62.50;;;;;;4018995;29;20067;-58
2023/01/19 04:06:45;;;;;;;1.98;1.88;;;16.40;62.40;;;;;;4018829;29;20136;-58
2023/01/19 04:09:26;;;;;;;2.22;1.98;;;16.40;62.50;;;;;;4018830;29;20105;-58
2023/01/19 04:12:07;;;;;;;2.00;1.90;;;16.30;62.70;;;;;;4018908;29;20132;-58
2023/01/19 04:14:48;;;;;;;1.77;1.67;;;16.20;62.90;;;;;;4018837;29;20061;-59
2023/01/19 04:17:29;;;;;;;2.05;1.70;;;16.10;63.30;;;;;;4018719;29;20193;-59
2023/01/19 04:20:12;;;;;;;1.88;1.77;;;16.00;63.60;;;;;;4018552;29;20048;-58
2023/01/19 04:22:53;;;;;;;2.10;2.00;;;16.00;64.10;;;;;;4018238;29;20417;-59
2023/01/19 04:25:34;;;;;;;1.90;1.80;;;15.90;64.40;;;;;;4018434;29;20064;-58
2023/01/19 04:28:17;;;;;;;2.75;2.17;;;15.90;64.30;;;;;;4018846;29;20066;-58
2023/01/19 04:30:58;;;;;;;2.17;2.05;;;15.90;64.30;;;;;;4018321;29;20061;-58
2023/01/19 04:33:39;;;;;;;2.28;2.05;;;15.90;64.50;;;;;;4018865;29;20051;-59
2023/01/19 04:36:21;;;;;;;2.63;2.08;;;16.00;64.70;;;;;;4018471;29;20056;-58
2023/01/19 04:39:01;;;;;;;2.50;2.30;;;16.00;64.40;;;;;;4017883;29;20149;-59
2023/01/19 04:41:43;;;;;;;2.00;1.90;;;16.00;64.40;;;;;;4018574;29;20412;-59
2023/01/19 04:44:23;;;;;;;2.97;1.80;;;16.10;65.30;;;;;;4018607;29;20060;-59
2023/01/19 04:47:04;;;;;;;1.80;1.70;;;16.20;64.30;;;;;;4018460;29;20109;-59
2023/01/19 04:49:45;;;;;;;2.80;2.28;;;16.20;64.10;;;;;;4018336;29;20052;-59
2023/01/19 04:52:33;;;;;;;1.73;1.63;;;16.30;63.80;;;;;;4018280;29;20120;-59
2023/01/19 04:55:15;;;;;;;2.05;1.95;;;16.30;63.70;;;;;;4018308;29;20496;-59
2023/01/19 04:57:55;;;;;;;2.22;2.03;;;16.30;63.70;;;;;;4018427;29;20056;-59
2023/01/19 05:00:36;;;;;;;2.38;2.17;;;16.40;63.50;;;;;;4018191;29;20144;-59
2023/01/19 05:03:18;;;;;;;2.08;1.98;;;16.50;63.40;;;;;;4018183;29;20052;-59
2023/01/19 05:05:59;;;;;;;2.33;2.13;;;16.50;63.30;;;;;;4018022;29;20060;-59
2023/01/19 05:08:41;;;;;;;1.60;1.50;;;16.50;63.40;;;;;;4018004;29;20085;-57
2023/01/19 05:11:25;;;;;;;2.05;1.85;;;16.60;63.10;;;;;;4018060;29;20076;-58
2023/01/19 05:14:06;;;;;;;1.90;1.80;;;16.50;63.00;;;;;;4017776;29;20060;-58
2023/01/19 05:16:47;;;;;;;1.77;1.67;;;16.50;63.10;;;;;;4017925;29;20464;-58
2023/01/19 05:19:28;;;;;;;1.80;1.70;;;16.40;63.50;;;;;;4018062;29;20064;-58
2023/01/19 05:22:08;;;;;;;2.47;1.60;;;16.50;63.60;;;;;;4017817;29;20061;-60
2023/01/19 05:24:51;;;;;;;2.50;1.85;;;16.50;63.60;;;;;;4017969;29;20413;-60
2023/01/19 05:27:32;;;;;;;3.13;1.63;;;16.50;64.40;;;;;;4017956;29;20186;-60
2023/01/19 05:30:14;;;;;;;1.83;1.50;;;16.50;63.50;;;;;;4018056;29;20051;-61
2023/01/19 05:32:54;;;;;;;1.70;1.60;;;16.50;63.50;;;;;;4017640;29;20053;-62
2023/01/19 05:35:35;;;;;;;2.22;1.42;;;16.50;63.40;;;;;;4017371;29;20060;-60
2023/01/19 05:38:17;;;;;;;1.75;1.65;;;16.40;63.50;;;;;;4017540;29;20384;-62
2023/01/19 05:41:07;;;;;;;1.65;1.55;;;16.40;63.70;;;;;;4017678;29;20598;-62
2023/01/19 05:43:47;;;;;;;1.95;1.50;;;16.30;64.20;;;;;;4017628;29;20059;-62
2023/01/19 05:46:28;;;;;;;1.45;1.40;;;16.30;64.20;;;;;;4017666;29;20052;-61
2023/01/19 05:49:11;;;;;;;2.25;1.52;;;16.30;64.10;;;;;;4016827;29;20061;-62
2023/01/19 05:51:52;;;;;;;1.67;1.55;;;16.30;64.20;;;;;;4017707;29;20193;-60
2023/01/19 05:54:33;;;;;;;1.60;1.50;;;16.30;64.10;;;;;;4017292;29;20507;-62
2023/01/19 05:57:15;;;;;;;1.23;1.20;;;16.20;65.10;;;;;;4017236;29;20056;-60
2023/01/19 05:59:56;;;;;;;2.10;1.60;;;16.20;64.40;;;;;;4017421;29;20056;-61
2023/01/19 06:02:36;;;;;;;1.80;1.70;;;16.10;64.50;;;;;;4017302;29;20553;-60
2023/01/19 06:05:18;;;;;;;1.33;1.33;;;16.00;65.00;;;;;;4017219;29;20060;-61
2023/01/19 06:07:59;;;;;;;2.53;1.38;;;16.00;66.20;;;;;;4017079;29;20057;-60
2023/01/19 06:10:40;;;;;;;2.20;1.67;;;16.10;65.40;;;;;;4017021;29;20129;-61
2023/01/19 06:13:22;;;;;;;2.80;1.45;;;16.10;65.10;;;;;;4005619;29;20059;-60
2023/01/19 06:16:03;;;;;;;1.27;1.10;;;16.20;65.00;;;;;;4017238;29;20128;-60
2023/01/19 06:18:44;;;;;;;1.30;1.30;;;16.20;64.70;;;;;;4017006;29;20065;-60
2023/01/19 06:21:25;;;;;;;5.25;1.60;;;16.30;64.60;;;;;;4017112;29;20200;-61
2023/01/19 06:24:06;;;;;;;1.40;1.13;;;16.30;64.60;;;;;;4017106;29;20089;-60
2023/01/19 06:26:47;;;;;;;1.08;1.00;;;16.30;64.60;;;;;;4016997;29;20060;-60
2023/01/19 06:29:30;;;;;;;2.15;1.23;;;16.40;64.50;;;;;;4017075;29;20140;-61
2023/01/19 06:32:11;;;;;;;4.18;1.58;;;16.40;64.20;;;;;;4016685;29;20056;-61
2023/01/19 06:34:51;;;;;;;2.55;1.00;;;16.40;64.10;;;;;;4017071;29;20072;-61
2023/01/19 06:37:34;;;;;;;0.70;0.52;;;16.40;64.00;;;;;;4016983;29;20056;-61
2023/01/19 06:40:15;;;;;;;3.55;0.52;;;16.40;63.90;;;;;;4017030;29;20051;-61
2023/01/19 06:42:56;;;;;;;4.28;0.65;;;16.40;63.90;;;;;;4016995;29;20064;-60
2023/01/19 06:45:38;;;;;;;1.13;0.60;;;16.40;64.00;;;;;;4016666;29;20473;-60
2023/01/19 06:48:19;;;;;;;1.92;0.50;;;16.40;63.90;;;;;;4016589;29;20076;-60
2023/01/19 06:51:00;;;;;;;5.10;0.80;;;16.40;63.90;;;;;;4016732;29;20133;-60
2023/01/19 06:53:41;;;;;;;2.40;0.70;;;16.40;65.00;;;;;;4017052;29;20064;-60
2023/01/19 06:56:22;;;;;;;3.05;0.47;;;16.40;64.00;;;;;;4016830;29;20056;-61
2023/01/19 06:59:03;;;;;;;5.55;0.82;;;16.40;64.20;;;;;;4005348;29;20129;-60
2023/01/19 07:01:45;;;;;;;2.50;0.50;;;16.40;64.10;;;;;;4018778;29;20064;-60
2023/01/19 07:04:26;;;;;;;3.33;0.63;;;16.40;64.30;;;;;;4019706;29;20427;-60
2023/01/19 07:07:07;;;;;;;3.80;1.08;;;16.40;64.70;;;;;;4019797;29;20065;-60
2023/01/19 07:09:48;;;;;;;5.35;1.02;;;16.40;64.60;;;;;;4019906;29;20069;-61
2023/01/19 07:12:30;;;;;;;1.10;0.50;;;16.40;64.60;;;;;;4019618;29;20064;-60
2023/01/19 07:15:11;;;;;;;;;;;16.40;64.60;;;;;;4020059;29;20052;-60
2023/01/19 07:17:53;;;;;;;8.23;0.85;;;16.40;64.70;;;;;;4019482;29;19935;-60
2023/01/19 07:20:34;;;;;;;3.22;0.95;;;16.40;64.70;;;;;;4019647;29;20484;-60
2023/01/19 07:23:15;;;;;;;3.33;0.80;;;16.30;64.70;;;;;;4019668;29;20068;-60
2023/01/19 07:25:56;;;;;;;4.15;0.70;;;16.30;64.80;;;;;;4019574;29;20049;-61
2023/01/19 07:28:37;;;;;;;3.53;0.90;;;16.30;64.80;;;;;;4019513;29;20404;-61
2023/01/19 07:31:19;;;;;;;4.63;1.42;;;16.30;64.80;;;;;;4019195;29;20051;-61
2023/01/19 07:34:02;;;;;;;4.47;1.17;;;16.30;64.70;;;;;;4018413;29;20059;-60
2023/01/19 07:36:42;;;;;;;1.27;0.82;;;16.30;64.80;;;;;;4018467;29;20098;-60
2023/01/19 07:39:23;;;;;;;6.53;1.10;;;16.30;64.70;;;;;;4007068;29;20190;-61
2023/01/19 07:42:04;;;;;;;5.75;1.08;;;16.40;64.60;;;;;;4019312;29;20060;-60
2023/01/19 07:44:45;;;;;;;4.68;1.30;;;16.40;64.50;;;;;;4019480;29;20056;-60
2023/01/19 07:47:26;;;;;;;6.13;1.27;;;16.40;64.50;;;;;;4018906;29;20166;-61
2023/01/19 07:50:11;;;;;;;4.38;1.40;;;16.40;64.50;;;;;;4018321;29;20090;-60
2023/01/19 07:52:52;;;;;;;4.72;1.23;;;16.40;64.30;;;;;;4018346;29;20109;-61
2023/01/19 07:55:33;;;;;;;4.25;1.10;;;16.40;64.30;;;;;;4017827;29;20052;-60
2023/01/19 07:58:13;;;;;;;3.85;0.88;;;16.40;64.30;;;;;;4018205;29;20060;-60
2023/01/19 08:00:55;;;;;;;4.65;1.20;;;16.40;64.30;;;;;;4018247;29;20056;-60
2023/01/19 08:03:36;;;;;;;4.95;0.98;;;16.40;64.30;;;;;;4018707;29;20064;-59
2023/01/19 08:06:21;;;;;;;7.40;1.30;;;16.30;63.90;;;;;;4019164;29;20064;-60
2023/01/19 08:09:04;;;;;;;6.28;1.25;;;16.30;64.60;;;;;;4018867;29;20060;-60
2023/01/19 08:11:45;;;;;;;6.80;1.23;;;16.30;64.60;;;;;;4018718;29;20072;-61
2023/01/19 08:14:26;;;;;;;4.63;1.85;;;16.30;64.40;;;;;;4018689;29;20113;-60
2023/01/19 08:17:07;;;;;;;7.20;1.30;;;16.30;64.50;;;;;;4018762;29;20052;-59
2023/01/19 08:19:48;;;;;;;6.28;1.30;;;16.30;64.60;;;;;;4018782;29;20121;-59
2023/01/19 08:22:30;;;;;;;7.30;1.63;;;16.20;64.70;;;;;;4007299;29;20064;-60
2023/01/19 08:25:11;;;;;;;7.10;2.00;;;16.20;64.80;;;;;;4018601;29;20201;-60
2023/01/19 08:27:55;;;;;;;8.07;1.70;;;16.10;64.80;;;;;;4018634;29;20057;-60
2023/01/19 08:30:37;;;;;;;8.82;1.33;;;16.00;65.00;;;;;;4018601;29;20145;-60
2023/01/19 08:33:17;;;;;;;7.50;1.40;;;15.90;65.40;;;;;;4018694;29;20061;-60
2023/01/19 08:35:58;;;;;;;4.85;1.08;;;15.80;65.80;;;;;;4018533;29;20374;-60
2023/01/19 08:38:42;;;;;;;2.53;1.00;;;15.80;66.20;;;;;;4018346;29;20084;-60
2023/01/19 08:41:23;;;;;;;5.60;1.15;;;15.90;66.30;;;;;;4018388;29;20072;-60
2023/01/19 08:44:05;;;;;;;5.47;1.27;;;16.00;66.00;;;;;;4018324;29;20048;-60
2023/01/19 08:46:46;;;;;;;6.35;1.35;;;16.00;66.50;;;;;;4018212;29;20144;-60
2023/01/19 08:49:27;;;;;;;8.32;1.67;;;16.10;65.40;;;;;;4018291;29;20064;-60
2023/01/19 08:52:08;;;;;;;4.35;1.45;;;16.20;65.20;;;;;;4017625;29;20073;-60
2023/01/19 08:54:50;;;;;;;9.32;1.23;;;16.20;65.10;;;;;;4018019;29;20174;-60
2023/01/19 08:57:31;;;;;;;6.60;1.77;;;16.20;65.10;;;;;;4017938;29;20125;-60
2023/01/19 09:00:13;;;;;;;6.68;1.08;;;16.20;65.00;;;;;;4018255;29;20052;-59
2023/01/19 09:02:55;;;;;;;5.75;1.67;;;16.10;64.90;;;;;;4018052;29;20060;-60
2023/01/19 09:05:37;;;;;;;3.80;1.30;;;16.10;65.20;;;;;;4017703;29;20513;-60
2023/01/19 09:08:18;;;;;;;7.28;1.67;;;16.10;65.40;;;;;;4016858;29;20060;-61
2023/01/19 09:11:00;;;;;;;5.28;1.20;;;16.10;65.40;;;;;;4014601;29;20421;-60
2023/01/19 09:13:41;;;;;;;10.00;1.67;;;16.30;65.20;;;;;;4015142;29;20393;-60
2023/01/19 09:16:22;;;;;;;7.82;1.52;;;16.30;64.90;;;;;;4017709;29;20117;-59
2023/01/19 09:19:03;;;;;;;9.55;1.35;;;16.40;64.80;;;;;;4017480;29;20052;-60
2023/01/19 09:21:44;;;;;;;8.37;2.13;;;16.40;64.60;;;;;;4017416;29;20053;-59
2023/01/19 09:24:25;;;;;;;8.07;1.58;;;16.50;64.50;;;;;;4017351;29;20189;-60
2023/01/19 09:27:08;;;;;;;6.43;1.15;;;16.50;64.40;;;;;;4017799;29;20791;-59
2023/01/19 09:29:51;;;;;;;8.75;1.77;;;16.50;64.40;;;;;;4016257;29;20143;-59
2023/01/19 09:32:32;;;;;;;5.60;2.00;;;16.40;64.30;;;;;;4017294;29;20052;-60
2023/01/19 09:35:13;;;;;;;7.53;1.55;;;16.40;64.40;;;;;;4017650;29;20068;-59
2023/01/19 09:37:54;;;;;;;6.10;1.17;;;16.40;64.10;;;;;;4017671;29;20052;-60
2023/01/19 09:40:36;;;;;;;5.13;1.33;;;16.40;63.90;;;;;;4017608;29;20565;-60
2023/01/19 09:43:29;;;;;;;8.73;2.00;;;16.40;63.60;;;;;;4017694;29;20186;-60
2023/01/19 09:46:14;;;;;;;7.43;1.60;;;16.50;63.20;;;;;;4017097;29;20056;-60
2023/01/19 09:48:57;;;;;;;8.55;1.70;;;16.60;62.80;;;;;;4017563;29;20536;-60
2023/01/19 09:51:40;;;;;;;11.95;2.10;;;16.50;62.50;;;;;;4017504;29;20504;-60
2023/01/19 09:54:24;;;;;;;6.82;1.40;;;16.50;62.50;;;;;;4017327;29;20527;-62
2023/01/19 09:57:10;;;;;;;8.70;1.42;;;16.60;62.30;;;;;;4017044;29;20129;-60
2023/01/19 09:59:58;;;;;;;4.78;1.45;;;16.60;63.20;;;;;;4017174;29;20504;-60
2023/01/19 10:02:44;;;;;;;5.55;1.30;;;16.60;62.20;;;;;;4017283;29;20129;-60
2023/01/19 10:05:31;;;;;;;6.10;1.58;;;16.60;61.90;;;;;;4016829;29;20827;-60
2023/01/19 10:08:19;;;;;;;11.13;1.63;;;16.60;62.40;;;;;;4017306;29;20514;-60
2023/01/19 10:10:59;;;;;;;5.70;1.60;;;16.60;61.90;;;;;;4017142;29;20553;-60
2023/01/19 10:13:46;;;;;;;3.40;1.25;;;16.50;61.90;;;;;;4017013;29;20520;-60
2023/01/19 10:16:36;;;;;;;4.55;1.33;;;16.50;62.00;;;;;;4016723;29;20097;-60
2023/01/19 10:19:23;;;;;;;5.65;1.33;;;16.40;62.10;;;;;;4016633;29;20056;-60
2023/01/19 10:22:17;;;;;;;6.15;1.85;;;16.40;62.40;;;;;;4005106;29;20536;-59
2023/01/19 10:25:04;;;;;;;4.47;1.08;;;16.40;62.50;;;;;;4016487;29;20194;-59
2023/01/19 10:27:46;;;;;;;7.57;1.63;;;16.50;62.20;;;;;;4016870;29;20067;-59
2023/01/19 10:30:29;;;;;;;9.52;1.88;;;16.50;62.10;;;;;;4021109;29;20500;-60
2023/01/19 10:33:14;;;;;;;4.47;1.73;;;16.50;62.00;;;;;;4016623;29;20194;-60
2023/01/19 10:35:55;;;;;;;4.93;1.55;;;16.50;61.70;;;;;;4031643;29;20076;-60
2023/01/19 10:38:36;;;;;;;4.05;1.33;;;16.50;61.90;;;;;;4022779;29;20153;-60
2023/01/19 10:41:26;;;;;;;6.03;1.70;;;16.50;62.10;;;;;;4016747;29;20051;-60
2023/01/19 10:44:08;;;;;;;8.05;1.58;;;16.50;61.90;;;;;;4016856;29;20405;-60
2023/01/19 10:46:50;;;;;;;5.53;1.20;;;16.50;61.80;;;;;;4023408;29;20853;-60
2023/01/19 10:49:41;;;;;;;6.35;1.85;;;16.50;61.80;;;;;;4031995;29;20064;-60
2023/01/19 10:52:29;;;;;;;7.85;1.10;;;16.40;61.70;;;;;;4031876;29;20067;-60
2023/01/19 10:55:24;;;;;;;8.55;1.85;;;16.40;62.10;;;;;;4032050;29;20124;-60
2023/01/19 10:58:06;;;;;;;7.38;1.55;;;16.40;62.10;;;;;;4031680;29;20063;-59
2023/01/19 11:00:47;;;;;;;4.20;1.45;;;16.40;62.20;;;;;;4031871;29;20055;-59
2023/01/19 11:03:30;;;;;;;6.20;1.95;;;16.40;62.20;;;;;;4028142;29;20528;-60
2023/01/19 11:06:24;;;;;;;9.32;2.40;;;16.40;62.10;;;;;;4016496;29;20113;-59
2023/01/19 11:09:14;;;;;;;6.82;1.67;;;16.30;61.80;;;;;;4016375;29;20130;-59
2023/01/19 11:11:55;;;;;;;8.55;1.92;;;16.30;62.30;;;;;;4015561;29;20565;-59
2023/01/19 11:14:38;;;;;;;7.40;1.85;;;16.30;62.50;;;;;;4016561;29;20064;-60
2023/01/19 11:17:24;;;;;;;6.25;1.33;;;16.40;62.50;;;;;;4001320;29;20190;-60
2023/01/19 11:20:06;;;;;;;7.10;1.52;;;16.40;62.20;;;;;;4001312;29;20068;-60
2023/01/19 11:22:49;;;;;;;6.68;1.63;;;16.40;62.30;;;;;;3990037;29;20060;-60
2023/01/19 11:25:32;;;;;;;4.43;1.23;;;16.40;62.20;;;;;;4000840;29;20513;-62
2023/01/19 11:28:18;;;;;;;9.80;1.85;;;16.40;62.30;;;;;;4001013;29;20190;-61
2023/01/19 11:31:01;;;;;;;7.57;1.98;;;16.30;62.40;;;;;;4000692;29;20558;-59
2023/01/19 11:33:48;;;;;;;6.95;1.92;;;16.30;62.50;;;;;;4001082;29;20064;-59
2023/01/19 11:36:32;;;;;;;7.65;1.58;;;16.40;62.80;;;;;;4001128;29;20496;-60
2023/01/19 11:39:23;;;;;;;6.72;1.60;;;16.40;63.70;;;;;;4001092;29;20065;-59
2023/01/19 11:42:05;;;;;;;;;;;16.30;62.60;;;;;;4001393;29;20186;-59
2023/01/19 11:44:52;;;;;;;8.43;1.40;;;16.30;63.20;;;;;;4000971;29;19935;-61
2023/01/19 11:47:39;;;;;;;7.43;1.70;;;16.20;63.40;;;;;;4002933;29;20061;-61
2023/01/19 11:50:24;;;;;;;3.65;1.20;;;16.20;63.50;;;;;;4003969;29;20065;-61
2023/01/19 11:53:07;;;;;;;5.25;1.30;;;16.10;63.60;;;;;;4003969;29;20060;-60
2023/01/19 11:55:54;;;;;;;7.57;1.40;;;16.00;64.00;;;;;;4004007;29;20142;-60
2023/01/19 11:58:39;;;;;;;6.38;1.60;;;16.00;64.10;;;;;;4003896;29;20057;-60
2023/01/19 12:01:23;;;;;;;5.82;1.00;;;16.00;64.50;;;;;;4003458;29;20057;-60
2023/01/19 12:04:09;;;;;;;4.10;1.50;;;15.90;65.10;;;;;;4003644;29;20443;-62
2023/01/19 12:06:54;;;;;;;5.70;1.08;;;15.90;64.40;;;;;;4003751;29;20078;-60
2023/01/19 12:09:41;;;;;;;5.00;1.40;;;16.00;64.60;;;;;;4003601;29;20515;-60
2023/01/19 12:12:28;;;;;;;6.00;1.63;;;16.00;64.60;;;;;;4003376;29;20060;-60
2023/01/19 12:15:21;;;;;;;4.22;1.50;;;15.90;64.40;;;;;;4003617;29;20049;-60
2023/01/19 12:18:04;;;;;;;4.18;1.23;;;15.90;64.50;;;;;;4003110;29;20069;-60
2023/01/19 12:20:49;;;;;;;3.00;1.02;;;15.90;64.70;;;;;;4003362;29;20421;-60
2023/01/19 12:23:47;;;;;;;5.47;1.27;;;15.80;64.60;;;;;;4003475;29;20060;-60
2023/01/19 12:26:36;;;;;;;3.28;1.08;;;15.80;63.30;;;;;;4003001;29;20064;-60
2023/01/19 12:29:21;;;;;;;6.20;1.02;;;15.80;64.80;;;;;;4003514;29;20497;-61
2023/01/19 12:32:19;;;;;;;4.10;0.95;;;15.80;64.90;;;;;;4002898;29;20075;-59
2023/01/19 12:35:01;;;;;;;4.75;1.13;;;15.80;64.70;;;;;;4002660;29;20129;-60
2023/01/19 12:37:44;;;;;;;5.53;1.07;;;15.80;64.50;;;;;;4002974;29;20094;-60
2023/01/19 12:40:27;;;;;;;6.40;1.23;;;15.80;65.20;;;;;;4003099;29;20835;-60
2023/01/19 12:43:16;;;;;;;5.47;1.10;;;15.70;65.40;;;;;;4003306;29;20085;-60
2023/01/19 12:45:58;;;;;;;7.28;1.30;;;15.60;65.70;;;;;;4002852;29;20138;-60
2023/01/19 12:48:40;;;;;;;2.67;0.73;;;15.60;66.30;;;;;;4003267;29;20070;-60
2023/01/19 12:51:25;;;;;;;;;;;15.60;66.60;;;;;;4003493;29;20521;-60
2023/01/19 12:54:08;;;;;;;7.75;1.25;;;15.70;67.90;;;;;;4002929;29;20020;-60
2023/01/19 12:56:49;;;;;;;8.48;1.52;;;15.70;66.70;;;;;;4003000;29;20064;-60
2023/01/19 12:59:33;;;;;;;5.68;1.50;;;15.80;66.30;;;;;;4002304;29;20053;-60
2023/01/19 13:02:50;;;;;;;9.05;1.50;;;15.90;67.00;;;;;;4002909;29;20389;-59
2023/01/19 13:05:59;;;;;;;7.30;1.67;;;15.90;65.60;;;;;;4002782;29;20525;-60
2023/01/19 13:09:01;;;;;;;5.10;1.75;;;16.00;65.00;;;;;;4002759;29;20084;-60
2023/01/19 13:12:11;;;;;;;7.57;2.28;;;16.10;64.50;;;;;;4002686;29;20516;-60
2023/01/19 13:15:26;;;;;;;3.42;1.02;;;16.10;64.40;;;;;;3991090;29;20186;-61
2023/01/19 13:18:09;;;;;;;4.55;1.15;;;16.10;65.10;;;;;;4002499;29;20141;-60
2023/01/19 13:20:51;;;;;;;;;;;16.20;64.90;;;;;;4003127;29;20194;-61
2023/01/19 13:23:53;;;;;;;5.07;1.38;;;16.20;64.90;;;;;;4002758;29;20077;-60
2023/01/19 13:26:37;;;;;;;6.90;1.42;;;16.20;64.90;;;;;;4002606;29;20084;-61
2023/01/19 13:29:25;;;;;;;5.40;1.27;;;16.20;65.50;;;;;;4002429;29;20049;-61
2023/01/19 13:32:15;;;;;;;5.40;0.85;;;16.20;65.00;;;;;;3991048;29;20110;-61
2023/01/19 13:35:00;;;;;;;4.05;1.50;;;16.20;64.80;;;;;;3972361;29;20093;-61
2023/01/19 13:37:44;;;;;;;2.53;1.02;;;16.20;64.90;;;;;;3972474;29;20070;-60
2023/01/19 13:40:37;;;;;;;4.88;1.30;;;16.20;65.90;;;;;;3972060;29;20058;-60
2023/01/19 13:43:21;;;;;;;4.35;1.55;;;16.20;64.60;;;;;;3971769;29;20399;-59
2023/01/19 13:46:02;;;;;;;4.35;0.98;;;16.20;64.70;;;;;;3971867;29;20061;-61
2023/01/19 13:48:54;;;;;;;5.80;1.60;;;16.10;64.70;;;;;;3971926;29;20514;-61
2023/01/19 13:51:35;;;;;;;;;;;16.10;64.50;;;;;;3972305;29;20074;-59
2023/01/19 13:54:17;;;;;;;5.80;0.88;;;16.10;66.20;;;;;;3972155;29;20063;-60
2023/01/19 13:57:01;;;;;;;3.45;1.33;;;16.00;65.70;;;;;;3972163;29;20057;-60
2023/01/19 13:59:43;;;;;;;2.53;1.00;;;15.90;65.80;;;;;;3972019;29;20079;-60
2023/01/19 14:02:24;;;;;;;5.03;0.95;;;15.90;65.90;;;;;;3972027;29;20050;-61
2023/01/19 14:05:15;;;;;;;9.38;1.10;;;15.80;66.00;;;;;;3972094;29;20108;-61
2023/01/19 14:08:04;;;;;;;10.93;2.60;;;15.70;65.80;;;;;;3972119;29;21047;-61
2023/01/19 14:11:00;;;;;;;8.32;1.33;;;15.60;66.30;;;;;;3970932;29;20377;-61
2023/01/19 14:13:44;;;;;;;5.80;1.20;;;15.60;66.90;;;;;;3971680;29;20132;-60
2023/01/19 14:16:25;;;;;;;5.82;1.20;;;15.50;66.90;;;;;;3971976;29;20143;-60
2023/01/19 14:19:06;;;;;;;3.95;1.23;;;15.40;67.20;;;;;;3972027;29;20109;-60
2023/01/19 14:21:58;;;;;;;3.78;0.90;;;15.40;67.50;;;;;;3971573;29;20518;-60
2023/01/19 14:24:39;;;;;;;5.45;1.05;;;15.30;67.40;;;;;;3971647;29;20131;-60
2023/01/19 14:27:23;;;;;;;4.60;1.15;;;15.30;68.00;;;;;;3971738;29;20062;-60
2023/01/19 14:30:20;;;;;;;6.03;1.08;;;15.20;68.00;;;;;;3971753;29;20049;-60